Time;durP1;ratioP1;P1;durP2;ratioP2;P2;SDS_P1;SDS_P2;PMS_P1;PMS_P2;Temp;Humidity;BMP_temperature;BMP_pressure;BME280_temperature;BME280_humidity;BME280_pressure;Samples;Min_cycle;Max_cycle;Signal;HPM_P1;HPM_P2
2021/12/18 00:00:39;;;;;;;31.63;18.30;;;;;;;0.51;100.00;98171.00;5021403;28;20030;-75
2021/12/18 00:03:06;;;;;;;29.23;17.90;;;;;;;0.60;100.00;98161.16;4984155;28;20460;-77
2021/12/18 00:05:32;;;;;;;32.60;18.40;;;;;;;0.66;100.00;98173.06;5042668;28;20440;-76
2021/12/18 00:07:58;;;;;;;29.20;17.30;;;;;;;0.65;100.00;98164.44;4995855;28;20484;-76
2021/12/18 00:10:24;;;;;;;28.17;16.60;;;;;;;0.51;100.00;98156.31;5011851;28;20459;-76
2021/12/18 00:12:51;;;;;;;29.43;17.80;;;;;;;0.53;100.00;98169.19;4993643;28;20021;-76
2021/12/18 00:15:21;;;;;;;30.43;17.43;;;;;;;0.43;100.00;98164.28;5032106;28;20108;-76
2021/12/18 00:17:47;;;;;;;33.67;18.30;;;;;;;0.47;100.00;98165.06;5005548;28;20484;-75
2021/12/18 00:20:15;;;;;;;30.50;16.87;;;;;;;0.47;100.00;98165.91;5027961;28;20455;-77
2021/12/18 00:22:41;;;;;;;28.87;17.23;;;;;;;0.49;100.00;98158.06;4993821;28;20033;-77
2021/12/18 00:25:07;;;;;;;27.73;16.17;;;;;;;0.41;100.00;98160.09;5023760;28;20464;-75
2021/12/18 00:27:34;;;;;;;28.73;16.57;;;;;;;0.38;100.00;98158.44;5004257;28;20444;-76
2021/12/18 00:29:59;;;;;;;31.37;16.90;;;;;;;0.45;100.00;98162.50;5018780;28;20582;-76
2021/12/18 00:32:26;;;;;;;26.53;15.67;;;;;;;0.45;100.00;98161.66;5012142;28;20551;-77
2021/12/18 00:34:52;;;;;;;28.30;17.00;;;;;;;0.34;100.00;98163.75;5015527;28;20056;-75
2021/12/18 00:37:17;;;;;;;27.93;15.30;;;;;;;0.40;100.00;98158.38;4994856;28;20874;-76
2021/12/18 00:39:54;;;;;;;27.47;16.50;;;;;;;0.39;100.00;98156.69;5014563;28;20025;-75
2021/12/18 00:42:40;;;;;;;30.63;16.57;;;;;;;0.30;100.00;98162.16;5029160;28;20041;-76
2021/12/18 00:45:12;;;;;;;29.27;15.77;;;;;;;0.26;100.00;98157.97;5010709;28;20461;-77
2021/12/18 00:47:38;;;;;;;34.07;18.53;;;;;;;0.30;100.00;98162.16;5007641;28;20478;-76
2021/12/18 00:50:06;;;;;;;33.63;16.90;;;;;;;0.31;100.00;98154.34;5017145;28;20455;-76
2021/12/18 00:52:32;;;;;;;29.83;16.70;;;;;;;0.37;100.00;98159.34;5005159;28;20464;-76
2021/12/18 00:54:58;;;;;;;38.40;20.73;;;;;;;0.28;100.00;98162.22;4992178;28;21016;-76
2021/12/18 00:57:24;;;;;;;32.87;18.10;;;;;;;0.46;100.00;98158.19;5011466;28;20464;-76
2021/12/18 00:59:52;;;;;;;31.47;16.77;;;;;;;0.51;100.00;98166.66;5012865;28;20514;-77
2021/12/18 01:02:18;;;;;;;30.47;19.00;;;;;;;0.44;100.00;98173.78;5008851;28;20036;-77
2021/12/18 01:04:44;;;;;;;32.93;18.17;;;;;;;0.44;100.00;98172.94;5020321;28;21005;-77
2021/12/18 01:07:09;;;;;;;33.60;18.33;;;;;;;0.49;100.00;98173.59;4997931;28;20025;-76
2021/12/18 01:12:25;;;;;;;32.33;18.90;;;;;;;0.46;100.00;98168.53;5009622;28;20749;-76
2021/12/18 01:15:08;;;;;;;31.87;17.63;;;;;;;0.46;100.00;98158.19;5007684;28;20587;-77
2021/12/18 01:23:04;;;;;;;29.17;16.63;;;;;;;0.32;100.00;98166.38;5014186;28;20480;-77
2021/12/18 01:25:30;;;;;;;33.17;17.53;;;;;;;0.37;100.00;98161.06;5009370;28;20446;-75
2021/12/18 01:27:56;;;;;;;28.67;15.47;;;;;;;0.33;100.00;98169.81;4996558;28;20041;-76
2021/12/18 01:30:21;;;;;;;27.80;15.20;;;;;;;0.32;100.00;98165.53;4996215;28;20074;-76
2021/12/18 01:32:47;;;;;;;29.50;16.67;;;;;;;0.29;100.00;98168.22;5006754;28;20041;-75
2021/12/18 01:35:17;;;;;;;25.40;14.73;;;;;;;0.32;100.00;98168.97;5019846;28;20029;-77
2021/12/18 01:37:44;;;;;;;27.10;14.97;;;;;;;0.33;100.00;98167.22;4996561;28;20671;-78
2021/12/18 01:40:11;;;;;;;25.83;14.47;;;;;;;0.31;100.00;98166.44;4990165;28;20460;-76
2021/12/18 01:53:19;;;;;;;39.53;18.47;;;;;;;0.20;100.00;98167.63;5038277;28;20467;-76
2021/12/18 01:55:47;;;;;;;33.10;18.17;;;;;;;0.25;100.00;98169.22;5010149;28;20463;-76
2021/12/18 01:58:13;;;;;;;36.13;18.20;;;;;;;0.21;100.00;98158.97;5000013;28;20476;-76
2021/12/18 02:00:44;;;;;;;38.60;19.33;;;;;;;0.25;100.00;98158.88;5009152;28;20463;-76
2021/12/18 02:03:10;;;;;;;38.33;19.50;;;;;;;0.17;100.00;98165.13;5023059;28;20455;-77
2021/12/18 02:05:37;;;;;;;39.00;18.57;;;;;;;0.20;100.00;98154.69;5002841;28;20456;-76
2021/12/18 02:08:04;;;;;;;39.83;19.27;;;;;;;0.23;100.00;98153.72;5039444;28;20471;-76
2021/12/18 02:10:32;;;;;;;38.57;18.70;;;;;;;0.21;100.00;98158.97;4996246;28;20448;-77
2021/12/18 02:13:10;;;;;;;43.87;20.43;;;;;;;0.23;100.00;98159.78;5007790;28;20555;-76
2021/12/18 02:21:13;;;;;;;36.33;18.30;;;;;;;0.38;100.00;98155.84;5030122;28;21247;-76
2021/12/18 02:23:40;;;;;;;36.93;18.37;;;;;;;0.34;100.00;98154.25;5005827;28;20472;-76
2021/12/18 02:26:06;;;;;;;35.20;17.70;;;;;;;0.39;100.00;98167.88;5019900;28;20905;-77
2021/12/18 02:28:32;;;;;;;38.00;19.33;;;;;;;0.43;100.00;98166.03;5002438;28;20471;-76
2021/12/18 02:30:59;;;;;;;37.60;17.83;;;;;;;0.40;100.00;98167.00;5009771;28;20479;-75
2021/12/18 02:33:26;;;;;;;38.70;18.07;;;;;;;0.41;100.00;98162.66;4986346;28;20029;-77
2021/12/18 02:35:55;;;;;;;35.67;19.80;;;;;;;0.41;100.00;98160.09;5030954;28;21363;-77
2021/12/18 02:38:30;;;;;;;40.87;20.27;;;;;;;0.42;100.00;98166.94;5004065;28;20834;-76
2021/12/18 02:43:31;;;;;;;39.43;19.87;;;;;;;0.22;100.00;98171.00;5032379;28;20421;-76
2021/12/18 02:45:59;;;;;;;45.03;20.77;;;;;;;0.30;100.00;98167.31;5013290;28;20468;-75
2021/12/18 02:48:28;;;;;;;41.73;20.10;;;;;;;0.37;100.00;98174.88;5007758;28;20530;-77
2021/12/18 02:50:54;;;;;;;38.13;20.07;;;;;;;0.17;100.00;98179.81;5010946;28;20539;-75
2021/12/18 02:53:20;;;;;;;42.33;21.80;;;;;;;0.12;100.00;98174.78;5030274;28;20465;-76
2021/12/18 02:55:53;;;;;;;36.57;18.67;;;;;;;0.17;100.00;98172.91;5034728;28;20459;-76
2021/12/18 02:58:18;;;;;;;47.75;21.83;;;;;;;0.16;100.00;98181.53;5000552;28;20479;-76
2021/12/18 03:00:44;;;;;;;43.73;22.87;;;;;;;0.05;100.00;98183.63;5026522;28;20022;-76
2021/12/18 03:03:11;;;;;;;44.57;22.03;;;;;;;0.04;100.00;98174.16;5006355;28;20091;-76
2021/12/18 03:05:46;;;;;;;47.43;22.93;;;;;;;0.02;100.00;98173.34;4992781;28;20025;-76
2021/12/18 03:08:18;;;;;;;52.67;23.03;;;;;;;-0.02;100.00;98161.41;5004884;28;20550;-76
2021/12/18 03:24:41;;;;;;;42.83;19.87;;;;;;;-0.05;100.00;98161.50;5033185;28;20432;-76
2021/12/18 03:27:07;;;;;;;44.70;21.53;;;;;;;-0.09;100.00;98165.94;4993854;28;20470;-76
2021/12/18 03:29:34;;;;;;;38.07;17.77;;;;;;;-0.06;100.00;98170.16;5022437;28;20483;-76
2021/12/18 03:32:00;;;;;;;48.13;21.17;;;;;;;-0.09;100.00;98170.25;4984990;28;20487;-76
2021/12/18 03:34:25;;;;;;;42.17;19.17;;;;;;;-0.01;100.00;98168.28;4999238;28;20512;-76
2021/12/18 03:36:52;;;;;;;40.60;19.43;;;;;;;-0.11;100.00;98174.63;5027864;28;20064;-77
2021/12/18 03:39:18;;;;;;;37.20;17.23;;;;;;;-0.06;100.00;98165.84;5009985;28;20390;-76
2021/12/18 03:41:44;;;;;;;39.77;18.27;;;;;;;-0.04;100.00;98163.19;5007644;28;20675;-76
2021/12/18 03:44:11;;;;;;;35.93;17.17;;;;;;;0.01;100.00;98156.16;5002935;28;20452;-76
2021/12/18 03:46:37;;;;;;;33.90;17.10;;;;;;;-0.02;100.00;98161.41;5024567;28;20510;-76
2021/12/18 03:49:03;;;;;;;32.43;15.63;;;;;;;-0.12;100.00;98154.84;5001378;28;20481;-76
2021/12/18 03:51:29;;;;;;;31.97;15.93;;;;;;;-0.13;100.00;98153.16;5033307;28;20038;-76
2021/12/18 03:53:54;;;;;;;32.77;16.77;;;;;;;-0.04;100.00;98145.09;5003102;28;20858;-76
2021/12/18 03:56:22;;;;;;;31.03;15.03;;;;;;;-0.11;100.00;98146.16;5002188;28;20041;-76
2021/12/18 03:58:48;;;;;;;31.27;15.27;;;;;;;-0.02;100.00;98140.72;5016811;28;20041;-76
2021/12/18 04:01:13;;;;;;;27.73;13.87;;;;;;;-0.02;100.00;98140.72;5026772;28;20457;-77
2021/12/18 04:03:39;;;;;;;24.43;12.40;;;;;;;-0.10;100.00;98135.81;5013302;28;20034;-76
2021/12/18 04:06:05;;;;;;;29.17;13.10;;;;;;;-0.05;100.00;98135.66;5005958;28;20055;-76
2021/12/18 04:08:30;;;;;;;24.60;12.10;;;;;;;-0.05;100.00;98133.06;5025911;28;20033;-76
2021/12/18 04:10:56;;;;;;;27.20;13.47;;;;;;;0.00;100.00;98136.38;5005795;28;20040;-77
2021/12/18 04:13:22;;;;;;;22.73;11.60;;;;;;;-0.02;100.00;98133.81;5024202;28;20038;-76
2021/12/18 04:15:47;;;;;;;25.20;11.80;;;;;;;-0.06;100.00;98129.63;5009701;28;20033;-76
2021/12/18 04:18:13;;;;;;;28.90;13.50;;;;;;;0.03;100.00;98127.63;5013903;28;20068;-76
2021/12/18 04:20:39;;;;;;;25.53;12.53;;;;;;;0.02;100.00;98131.13;5008615;28;20039;-75
2021/12/18 04:23:05;;;;;;;22.43;11.83;;;;;;;0.04;100.00;98114.69;5010630;28;20022;-76
2021/12/18 04:25:31;;;;;;;24.17;12.57;;;;;;;0.03;100.00;98112.97;5010545;28;20044;-76
2021/12/18 04:27:57;;;;;;;23.37;11.70;;;;;;;0.03;100.00;98123.31;5012958;28;20965;-75
2021/12/18 04:30:23;;;;;;;25.47;13.37;;;;;;;0.07;100.00;98119.75;5008072;28;20452;-77
2021/12/18 04:32:48;;;;;;;28.10;13.43;;;;;;;0.09;100.00;98122.28;5015105;28;20025;-77
2021/12/18 04:35:14;;;;;;;24.17;12.50;;;;;;;0.11;100.00;98126.53;5040221;28;20505;-76
2021/12/18 04:37:40;;;;;;;26.57;13.90;;;;;;;0.15;100.00;98125.53;4998839;28;20022;-76
2021/12/18 04:40:07;;;;;;;25.37;12.17;;;;;;;0.07;100.00;98119.75;5010576;28;20017;-75
2021/12/18 04:42:32;;;;;;;25.70;12.40;;;;;;;0.02;100.00;98129.38;5019145;28;20645;-76
2021/12/18 04:44:58;;;;;;;22.60;11.50;;;;;;;0.01;100.00;98122.53;5038804;28;20442;-76
2021/12/18 04:47:24;;;;;;;24.47;11.87;;;;;;;0.10;100.00;98119.66;5023291;28;20693;-76
2021/12/18 04:49:50;;;;;;;26.53;13.40;;;;;;;0.06;100.00;98112.03;5039137;28;20487;-77
2021/12/18 04:52:15;;;;;;;25.40;12.47;;;;;;;0.05;100.00;98115.50;5005791;28;20124;-76
2021/12/18 04:54:41;;;;;;;26.40;13.83;;;;;;;-0.01;100.00;98122.56;5022350;28;20043;-75
2021/12/18 04:57:07;;;;;;;27.63;13.80;;;;;;;-0.03;100.00;98120.94;5016392;28;20033;-76
2021/12/18 04:59:32;;;;;;;29.30;13.50;;;;;;;0.03;100.00;98122.47;5013193;28;20037;-75
2021/12/18 05:01:58;;;;;;;23.80;12.80;;;;;;;0.07;100.00;98130.09;5009720;28;20445;-76
2021/12/18 05:04:24;;;;;;;24.67;12.20;;;;;;;0.05;100.00;98126.69;5012675;28;20036;-76
2021/12/18 05:06:52;;;;;;;24.63;12.27;;;;;;;0.05;100.00;98121.53;5015059;28;20533;-76
2021/12/18 05:09:18;;;;;;;24.20;12.90;;;;;;;0.01;100.00;98125.13;5004663;28;20039;-76
2021/12/18 05:11:45;;;;;;;25.93;12.60;;;;;;;0.03;100.00;98131.06;5000460;28;20476;-76
2021/12/18 05:14:11;;;;;;;25.87;13.37;;;;;;;-0.03;100.00;98126.13;5004998;28;20456;-77
2021/12/18 05:16:37;;;;;;;26.47;13.47;;;;;;;-0.09;100.00;98129.72;5017730;28;20467;-76
2021/12/18 05:19:03;;;;;;;26.77;13.37;;;;;;;-0.26;100.00;98138.00;5000574;28;20438;-77
2021/12/18 05:21:29;;;;;;;25.20;12.80;;;;;;;-0.21;100.00;98132.66;5007776;28;20037;-75
2021/12/18 05:23:55;;;;;;;25.47;12.90;;;;;;;-0.17;100.00;98131.69;5014683;28;20515;-76
2021/12/18 05:26:20;;;;;;;28.37;13.77;;;;;;;-0.25;100.00;98134.50;5035716;28;20493;-76
2021/12/18 05:28:46;;;;;;;28.40;14.07;;;;;;;-0.19;100.00;98137.81;5007664;28;20466;-77
2021/12/18 05:31:16;;;;;;;26.63;13.53;;;;;;;-0.20;100.00;98138.69;5018624;28;20068;-77
2021/12/18 05:33:46;;;;;;;25.87;13.50;;;;;;;-0.25;100.00;98139.69;4998482;28;20064;-77
2021/12/18 05:39:10;;;;;;;28.63;13.63;;;;;;;-0.21;100.00;98139.59;4979777;28;20849;-76
2021/12/18 05:41:37;;;;;;;25.37;12.57;;;;;;;-0.19;100.00;98141.25;4996698;28;20534;-76
2021/12/18 05:44:04;;;;;;;23.03;11.47;;;;;;;-0.19;100.00;98132.66;5005483;28;20453;-76
2021/12/18 05:46:30;;;;;;;24.40;12.73;;;;;;;-0.16;100.00;98128.22;5006258;28;21103;-77
2021/12/18 05:48:56;;;;;;;23.93;12.23;;;;;;;-0.12;100.00;98134.97;5023082;28;20558;-75
2021/12/18 05:51:22;;;;;;;28.03;14.17;;;;;;;-0.13;100.00;98122.13;5016875;28;20116;-76
2021/12/18 05:53:47;;;;;;;25.30;13.03;;;;;;;-0.07;100.00;98122.78;4996353;28;20034;-76
2021/12/18 05:56:13;;;;;;;23.83;13.37;;;;;;;-0.04;100.00;98127.81;4993012;28;20090;-77
2021/12/18 05:58:41;;;;;;;25.13;12.17;;;;;;;-0.03;100.00;98124.38;5008618;28;20124;-77
2021/12/18 06:01:07;;;;;;;25.97;12.80;;;;;;;0.06;100.00;98123.22;5011672;28;20033;-76
2021/12/18 06:03:33;;;;;;;22.93;11.67;;;;;;;0.02;100.00;98126.78;5008803;28;20562;-76
2021/12/18 06:06:00;;;;;;;21.83;11.83;;;;;;;-0.03;100.00;98121.78;5010175;28;20475;-76
2021/12/18 06:08:26;;;;;;;25.00;12.90;;;;;;;-0.06;100.00;98128.78;4999304;28;20072;-76
2021/12/18 06:10:52;;;;;;;23.60;12.60;;;;;;;0.01;100.00;98127.69;5009933;28;20841;-77
2021/12/18 06:13:18;;;;;;;24.10;13.13;;;;;;;0.05;100.00;98131.03;5011403;28;20464;-76
2021/12/18 06:15:44;;;;;;;24.83;13.23;;;;;;;0.01;100.00;98135.47;4990141;28;20171;-75
2021/12/18 06:18:09;;;;;;;24.63;13.73;;;;;;;0.06;100.00;98133.56;5013621;28;20469;-76
2021/12/18 06:20:35;;;;;;;28.33;13.37;;;;;;;0.08;100.00;98138.72;5027056;28;20411;-75
2021/12/18 06:23:01;;;;;;;22.43;12.70;;;;;;;0.10;100.00;98132.59;5008902;28;20057;-76
2021/12/18 06:25:27;;;;;;;27.77;14.13;;;;;;;0.10;100.00;98142.94;5014168;28;20037;-76
2021/12/18 06:27:53;;;;;;;24.97;12.50;;;;;;;0.13;100.00;98142.81;4993113;28;20183;-77
2021/12/18 06:30:19;;;;;;;25.00;14.00;;;;;;;0.08;100.00;98141.28;5008443;28;20512;-75
2021/12/18 06:32:45;;;;;;;25.27;13.67;;;;;;;0.08;100.00;98139.53;5012104;28;21017;-76
2021/12/18 06:35:12;;;;;;;24.93;13.60;;;;;;;0.13;100.00;98140.22;5021257;28;20552;-77
2021/12/18 06:37:37;;;;;;;25.27;13.00;;;;;;;0.13;100.00;98140.22;5008009;28;20539;-77
2021/12/18 06:40:05;;;;;;;24.60;13.63;;;;;;;0.13;100.00;98153.16;5001793;28;20547;-76
2021/12/18 06:42:30;;;;;;;28.83;15.43;;;;;;;0.15;100.00;98142.78;4999983;28;20041;-75
2021/12/18 06:44:56;;;;;;;25.73;13.60;;;;;;;0.06;100.00;98136.16;5007666;28;20495;-76
2021/12/18 06:47:22;;;;;;;26.07;14.03;;;;;;;0.09;100.00;98146.41;5014587;28;20033;-76
2021/12/18 06:49:47;;;;;;;29.53;15.93;;;;;;;0.04;100.00;98145.72;5025376;28;20529;-76
2021/12/18 06:52:13;;;;;;;27.00;12.83;;;;;;;0.13;100.00;98141.97;5016221;28;20128;-76
2021/12/18 06:54:39;;;;;;;25.33;14.30;;;;;;;0.01;100.00;98143.22;5027498;28;20133;-75
2021/12/18 06:57:05;;;;;;;25.80;14.30;;;;;;;0.17;100.00;98141.84;5013325;28;20045;-76
2021/12/18 06:59:31;;;;;;;24.10;13.53;;;;;;;0.09;100.00;98143.81;5022737;28;20464;-76
2021/12/18 07:01:57;;;;;;;25.97;13.50;;;;;;;0.10;100.00;98150.69;4991405;28;20041;-76
2021/12/18 07:04:24;;;;;;;27.83;13.57;;;;;;;0.14;100.00;98152.28;5007448;28;20025;-76
2021/12/18 07:06:54;;;;;;;25.57;13.93;;;;;;;0.18;100.00;98150.47;5000779;28;20352;-76
2021/12/18 07:09:20;;;;;;;23.53;13.73;;;;;;;0.19;100.00;98145.22;4995896;28;20472;-77
2021/12/18 07:11:46;;;;;;;25.93;13.43;;;;;;;0.22;100.00;98152.88;5044470;28;20543;-77
2021/12/18 07:14:15;;;;;;;23.80;13.20;;;;;;;0.17;100.00;98153.94;5005436;28;20471;-76
2021/12/18 07:16:40;;;;;;;27.67;14.30;;;;;;;0.14;100.00;98147.13;5017764;28;20480;-77
2021/12/18 07:19:06;;;;;;;30.47;14.83;;;;;;;0.09;100.00;98149.00;5025581;28;20478;-76
2021/12/18 07:21:32;;;;;;;26.53;13.73;;;;;;;0.17;100.00;98153.94;5007758;28;20041;-77
2021/12/18 07:23:57;;;;;;;25.73;14.53;;;;;;;0.03;100.00;98153.50;5013453;28;20044;-77
2021/12/18 07:26:23;;;;;;;27.33;13.93;;;;;;;0.05;100.00;98151.72;5030068;28;20033;-76
2021/12/18 07:28:49;;;;;;;27.77;13.67;;;;;;;0.06;100.00;98150.81;5005602;28;20515;-76
2021/12/18 07:31:15;;;;;;;28.83;15.10;;;;;;;0.08;100.00;98156.81;5003945;28;20398;-76
2021/12/18 07:33:42;;;;;;;26.47;14.33;;;;;;;0.05;100.00;98162.91;5023417;28;20026;-76
2021/12/18 07:36:08;;;;;;;28.33;15.10;;;;;;;0.06;100.00;98159.44;4988576;28;20044;-78
2021/12/18 07:38:35;;;;;;;32.07;17.83;;;;;;;0.07;100.00;98157.69;4988472;28;20818;-76
2021/12/18 07:41:00;;;;;;;32.07;15.97;;;;;;;0.09;100.00;98159.34;5015154;28;20037;-77
2021/12/18 07:43:26;;;;;;;30.13;16.10;;;;;;;0.11;100.00;98157.56;5004913;28;20495;-77
2021/12/18 07:45:52;;;;;;;29.87;14.97;;;;;;;0.15;100.00;98153.97;4984219;28;20033;-77
2021/12/18 07:48:18;;;;;;;32.83;16.50;;;;;;;0.19;100.00;98155.56;5033715;28;20041;-77
2021/12/18 07:50:44;;;;;;;27.40;14.63;;;;;;;0.15;100.00;98146.22;5028221;28;20059;-77
2021/12/18 07:53:11;;;;;;;27.93;15.60;;;;;;;0.23;100.00;98152.00;5033128;28;20470;-78
2021/12/18 07:55:38;;;;;;;32.10;16.57;;;;;;;0.30;100.00;98149.22;4998659;28;21830;-76
2021/12/18 07:58:06;;;;;;;27.73;15.33;;;;;;;0.30;100.00;98151.78;5006724;28;20543;-77
2021/12/18 08:00:32;;;;;;;25.53;13.90;;;;;;;0.32;100.00;98150.00;5009868;28;20432;-77
2021/12/18 08:02:58;;;;;;;24.07;14.17;;;;;;;0.42;100.00;98154.00;4988238;28;20519;-78
2021/12/18 08:05:23;;;;;;;23.30;13.87;;;;;;;0.30;100.00;98156.97;5007605;28;20041;-78
2021/12/18 08:07:49;;;;;;;29.60;15.40;;;;;;;0.33;100.00;98156.88;5002596;28;20029;-77
2021/12/18 08:10:16;;;;;;;27.67;15.23;;;;;;;0.41;100.00;98160.09;5007180;28;20113;-76
2021/12/18 08:12:41;;;;;;;26.27;15.60;;;;;;;0.47;100.00;98157.31;5010483;28;20571;-77
2021/12/18 08:15:08;;;;;;;27.53;14.60;;;;;;;0.46;100.00;98163.34;5031838;28;20456;-77
2021/12/18 08:17:34;;;;;;;29.87;15.87;;;;;;;0.54;100.00;98158.78;5013037;28;20510;-77
2021/12/18 08:20:00;;;;;;;25.33;15.90;;;;;;;0.56;100.00;98164.75;5011242;28;20532;-77
2021/12/18 08:22:26;;;;;;;27.50;15.77;;;;;;;0.61;100.00;98149.91;5014620;28;20436;-78
2021/12/18 08:24:52;;;;;;;24.43;13.97;;;;;;;0.51;100.00;98155.47;4991704;28;20060;-77
2021/12/18 08:27:18;;;;;;;29.63;15.27;;;;;;;0.62;100.00;98148.16;5005663;28;20553;-77
2021/12/18 08:29:43;;;;;;;26.13;15.50;;;;;;;0.62;100.00;98161.13;5029348;28;20052;-77
2021/12/18 08:32:09;;;;;;;23.73;13.73;;;;;;;0.65;100.00;98154.09;5025774;28;20961;-79
2021/12/18 08:34:35;;;;;;;31.07;16.70;;;;;;;0.81;100.00;98163.94;5002269;28;20070;-77
2021/12/18 08:37:01;;;;;;;27.07;14.80;;;;;;;0.80;100.00;98167.41;5017731;28;20033;-76
2021/12/18 08:39:28;;;;;;;28.53;15.57;;;;;;;0.76;100.00;98161.50;4992824;28;20495;-76
2021/12/18 08:41:54;;;;;;;24.03;15.80;;;;;;;0.75;100.00;98170.16;5026013;28;20041;-76
2021/12/18 08:44:20;;;;;;;24.27;15.23;;;;;;;0.86;100.00;98169.81;5008440;28;20448;-76
2021/12/18 08:46:46;;;;;;;26.27;14.47;;;;;;;0.97;100.00;98167.69;5016326;28;20037;-76
2021/12/18 08:49:12;;;;;;;23.80;12.47;;;;;;;0.86;100.00;98168.06;5009520;28;20472;-77
2021/12/18 08:51:39;;;;;;;24.13;13.57;;;;;;;0.93;100.00;98169.53;4987808;28;20407;-77
2021/12/18 08:54:05;;;;;;;22.37;13.17;;;;;;;0.85;100.00;98161.19;5017955;28;20476;-77
2021/12/18 08:56:32;;;;;;;25.93;13.90;;;;;;;0.86;100.00;98167.22;5009434;28;20511;-76
2021/12/18 08:59:00;;;;;;;26.43;15.83;;;;;;;0.84;100.00;98169.00;4994733;28;20459;-76
2021/12/18 09:01:27;;;;;;;25.23;14.53;;;;;;;0.87;100.00;98158.53;5028584;28;20475;-77
2021/12/18 09:03:53;;;;;;;25.20;14.30;;;;;;;0.91;100.00;98162.75;5010712;28;20996;-76
2021/12/18 09:06:19;;;;;;;23.77;14.10;;;;;;;0.93;100.00;98163.50;5020874;28;21097;-77
2021/12/18 09:08:46;;;;;;;24.20;14.57;;;;;;;1.00;100.00;98164.16;4992407;28;20483;-76
2021/12/18 09:11:12;;;;;;;23.03;14.43;;;;;;;1.04;100.00;98158.84;5024015;28;20033;-77
2021/12/18 09:13:37;;;;;;;23.43;14.20;;;;;;;0.97;100.00;98169.44;5010814;28;20492;-78
2021/12/18 09:16:04;;;;;;;23.37;13.30;;;;;;;0.94;100.00;98173.00;5014319;28;20029;-77
2021/12/18 09:18:29;;;;;;;22.23;14.37;;;;;;;0.98;100.00;98166.81;5010035;28;20111;-77
2021/12/18 09:20:55;;;;;;;25.77;14.03;;;;;;;1.03;100.00;98166.63;5014154;28;20468;-78
2021/12/18 09:23:22;;;;;;;28.23;15.27;;;;;;;1.08;100.00;98156.97;5018482;28;20599;-77
2021/12/18 09:25:48;;;;;;;31.67;16.23;;;;;;;1.01;100.00;98165.88;5011004;28;20050;-77
2021/12/18 09:28:14;;;;;;;25.17;15.20;;;;;;;1.01;100.00;98164.13;4995295;28;20484;-76
2021/12/18 09:30:40;;;;;;;28.70;16.23;;;;;;;1.39;100.00;98162.75;5017452;28;20554;-77
2021/12/18 09:33:07;;;;;;;27.97;15.93;;;;;;;1.13;100.00;98166.25;5007302;28;20116;-77
2021/12/18 09:35:33;;;;;;;23.60;14.63;;;;;;;1.05;100.00;98173.47;5015511;28;20595;-77
2021/12/18 09:37:59;;;;;;;23.77;14.40;;;;;;;1.11;100.00;98169.84;5000176;28;20571;-76
2021/12/18 09:40:25;;;;;;;25.37;16.07;;;;;;;1.10;100.00;98168.97;5009978;28;20034;-75
2021/12/18 09:42:51;;;;;;;25.13;14.40;;;;;;;1.20;100.00;98168.66;5017921;28;20871;-77
2021/12/18 09:45:17;;;;;;;25.53;15.60;;;;;;;1.15;100.00;98164.47;5014323;28;20030;-78
2021/12/18 09:47:44;;;;;;;23.07;13.87;;;;;;;1.13;100.00;98170.59;5010963;28;20044;-76
2021/12/18 09:50:11;;;;;;;22.77;13.30;;;;;;;1.21;100.00;98165.13;5028215;28;20885;-76
2021/12/18 09:52:37;;;;;;;24.13;14.23;;;;;;;1.28;100.00;98158.88;5029319;28;20547;-77
2021/12/18 09:55:06;;;;;;;23.00;14.43;;;;;;;1.37;100.00;98164.53;5029554;28;20448;-76
2021/12/18 09:57:33;;;;;;;20.50;13.33;;;;;;;1.22;100.00;98157.34;5017514;28;20524;-77
2021/12/18 09:59:58;;;;;;;22.13;13.50;;;;;;;1.34;100.00;98148.25;5012792;28;20476;-77
2021/12/18 10:02:24;;;;;;;25.10;13.57;;;;;;;1.15;100.00;98148.94;5002274;28;20471;-77
2021/12/18 10:04:50;;;;;;;20.90;13.20;;;;;;;1.08;100.00;98142.28;4990563;28;20168;-77
2021/12/18 10:07:22;;;;;;;20.90;13.33;;;;;;;1.10;100.00;98145.63;4990160;28;20040;-77
2021/12/18 10:09:51;;;;;;;22.27;13.33;;;;;;;1.12;100.00;98140.41;5006862;28;20476;-76
2021/12/18 10:12:23;;;;;;;21.77;13.93;;;;;;;1.21;100.00;98134.91;5009169;28;21017;-77
2021/12/18 10:15:00;;;;;;;26.30;14.83;;;;;;;1.37;100.00;98130.00;5006361;28;20504;-78
2021/12/18 10:17:42;;;;;;;32.13;18.47;;;;;;;1.43;100.00;98132.38;5028258;28;20489;-76
2021/12/18 10:20:10;;;;;;;22.33;14.97;;;;;;;1.40;100.00;98132.47;5004130;28;20464;-76
2021/12/18 10:22:58;;;;;;;25.33;15.07;;;;;;;1.47;100.00;98122.75;5003914;28;20033;-75
2021/12/18 10:25:27;;;;;;;23.80;14.27;;;;;;;1.45;100.00;98119.38;5002128;28;20167;-75
2021/12/18 10:28:01;;;;;;;25.50;15.00;;;;;;;1.39;100.00;98121.28;5027450;28;20071;-76
2021/12/18 10:30:27;;;;;;;26.63;15.33;;;;;;;1.53;100.00;98112.97;5034694;28;20030;-77
2021/12/18 10:33:07;;;;;;;26.90;15.57;;;;;;;1.39;100.00;98115.25;4993033;28;20044;-77
2021/12/18 10:35:40;;;;;;;24.97;15.53;;;;;;;1.63;100.00;98113.50;4993914;28;20793;-78
2021/12/18 10:38:08;;;;;;;27.23;15.63;;;;;;;1.50;100.00;98107.91;4986998;28;20067;-77
2021/12/18 10:40:46;;;;;;;24.23;14.10;;;;;;;1.48;100.00;98109.72;5009327;28;20052;-76
2021/12/18 10:43:14;;;;;;;24.83;14.07;;;;;;;1.55;100.00;98106.00;5023149;28;20523;-76
2021/12/18 10:45:41;;;;;;;22.73;15.13;;;;;;;1.65;100.00;98101.31;5028660;28;20037;-77
2021/12/18 10:48:12;;;;;;;22.83;14.70;;;;;;;1.65;100.00;98094.38;5033197;28;20024;-76
2021/12/18 10:50:51;;;;;;;22.00;14.63;;;;;;;1.71;100.00;98089.84;4989057;28;20037;-76
2021/12/18 10:53:24;;;;;;;23.33;14.57;;;;;;;1.80;100.00;98094.69;5000942;28;20038;-76
2021/12/18 10:55:55;;;;;;;22.02;13.50;;;;;;;1.62;100.00;98088.47;5014720;28;20407;-76
2021/12/18 10:58:32;;;;;;;23.47;13.47;;;;;;;1.59;100.00;98093.78;4998773;28;20043;-76
2021/12/18 11:01:09;;;;;;;23.73;13.97;;;;;;;1.45;100.00;98096.88;4995835;28;20037;-76
2021/12/18 11:03:46;;;;;;;24.77;14.93;;;;;;;1.58;100.00;98084.31;5007742;28;20475;-76
2021/12/18 11:06:19;;;;;;;25.03;14.93;;;;;;;1.59;100.00;98086.81;5007342;28;20469;-76
2021/12/18 11:09:06;;;;;;;25.15;15.77;;;;;;;1.53;100.00;98089.66;5014125;28;20467;-76
2021/12/18 11:14:10;;;;;;;23.73;15.03;;;;;;;1.53;100.00;98088.81;5037762;28;20068;-76
2021/12/18 11:16:39;;;;;;;23.30;15.33;;;;;;;1.51;100.00;98085.41;5013190;28;20427;-77
2021/12/18 11:19:07;;;;;;;23.40;14.50;;;;;;;1.53;100.00;98081.03;5012465;28;20033;-76
2021/12/18 11:21:33;;;;;;;23.03;13.70;;;;;;;1.62;100.00;98080.69;5014454;28;20448;-77
2021/12/18 11:24:04;;;;;;;23.17;15.10;;;;;;;1.69;100.00;98068.34;5017969;28;20028;-77
2021/12/18 11:26:43;;;;;;;22.53;13.80;;;;;;;1.66;100.00;98069.28;5012131;28;20109;-76
2021/12/18 11:29:18;;;;;;;25.80;14.90;;;;;;;1.66;100.00;98066.69;4991566;28;20107;-77
2021/12/18 11:31:46;;;;;;;170.27;80.93;;;;;;;2.99;100.00;98058.59;5004901;28;20033;-76
2021/12/18 11:34:13;;;;;;;29.83;17.03;;;;;;;2.15;100.00;98059.56;5025687;28;20029;-76
2021/12/18 11:36:41;;;;;;;25.13;15.73;;;;;;;1.91;100.00;98051.00;5009886;28;20026;-76
2021/12/18 11:39:09;;;;;;;21.90;14.23;;;;;;;1.88;100.00;98040.78;4990093;28;20102;-77
2021/12/18 11:41:37;;;;;;;21.77;14.73;;;;;;;1.71;100.00;98038.84;5008411;28;20029;-76
2021/12/18 11:44:27;;;;;;;25.00;15.73;;;;;;;1.88;100.00;98036.44;5009896;28;20395;-76
2021/12/18 11:46:54;;;;;;;24.50;15.27;;;;;;;1.87;100.00;98026.94;5026806;28;20101;-77
2021/12/18 11:49:22;;;;;;;20.77;13.03;;;;;;;1.73;100.00;98029.22;5022352;28;20793;-77
2021/12/18 11:52:04;;;;;;;21.27;13.73;;;;;;;1.80;100.00;98037.63;5001354;28;20040;-77
2021/12/18 11:54:41;;;;;;;20.47;13.50;;;;;;;1.73;100.00;98031.00;5028632;28;20026;-77
2021/12/18 11:57:07;;;;;;;20.10;13.10;;;;;;;1.76;100.00;98028.28;5019425;28;20546;-76
2021/12/18 11:59:51;;;;;;;20.80;13.47;;;;;;;1.58;100.00;98025.50;4994739;28;20031;-77
2021/12/18 12:02:36;;;;;;;;;;;;;;;1.42;100.00;98022.66;4998684;28;20033;-77
2021/12/18 12:05:05;;;;;;;24.60;14.30;;;;;;;1.47;100.00;98025.06;5009981;28;19916;-77